createdAt,value
2022-09-20T00:03:29.480Z,93.70
2022-09-20T00:06:04.323Z,93.30
2022-09-20T00:08:35.565Z,93.20
2022-09-20T00:11:27.268Z,93.10
2022-09-20T00:14:00.663Z,93.40
2022-09-20T00:16:34.127Z,93.20
2022-09-20T00:19:08.334Z,93.30
2022-09-20T00:24:24.908Z,93.50
2022-09-20T00:26:56.630Z,93.10
2022-09-20T00:29:27.624Z,93.10
2022-09-20T00:31:58.603Z,93.20
2022-09-20T00:34:47.781Z,93.50
2022-09-20T00:37:18.947Z,93.20
2022-09-20T00:39:50.042Z,92.90
2022-09-20T00:42:21.261Z,92.90
2022-09-20T00:45:05.618Z,92.70
2022-09-20T00:47:46.216Z,93.10
2022-09-20T00:50:40.768Z,93.70
2022-09-20T00:53:28.861Z,94.20
2022-09-20T00:56:10.842Z,94.40
2022-09-20T00:58:51.402Z,94.50
2022-09-20T01:01:43.531Z,94.60
2022-09-20T01:04:17.676Z,93.90
2022-09-20T01:06:49.911Z,94.60
2022-09-20T01:09:20.773Z,94.30
2022-09-20T01:11:54.184Z,94.20
2022-09-20T01:14:45.177Z,94.10
2022-09-20T01:17:17.033Z,94.00
2022-09-20T01:19:51.053Z,94.20
2022-09-20T01:23:08.884Z,94.20
2022-09-20T01:26:09.843Z,94.10
2022-09-20T01:28:43.556Z,94.10
2022-09-20T01:31:19.959Z,94.30
2022-09-20T01:34:13.275Z,94.20
2022-09-20T01:36:56.575Z,94.00
2022-09-20T01:39:52.425Z,93.80
2022-09-20T01:42:55.587Z,94.00
2022-09-20T01:45:34.099Z,94.00
2022-09-20T01:48:22.161Z,93.80
2022-09-20T01:51:30.488Z,93.80
2022-09-20T01:54:04.049Z,93.80
2022-09-20T01:57:03.315Z,93.80
2022-09-20T01:59:40.096Z,93.60
2022-09-20T02:02:41.163Z,93.70
2022-09-20T02:05:40.744Z,93.60
2022-09-20T02:08:59.053Z,94.10
2022-09-20T02:11:52.375Z,93.70
2022-09-20T02:14:32.083Z,93.90
2022-09-20T02:17:16.364Z,94.50
2022-09-20T02:20:11.756Z,93.80
2022-09-20T02:22:50.652Z,94.30
2022-09-20T02:25:37.977Z,94.10
2022-09-20T02:28:33.075Z,94.10
2022-09-20T02:31:45.315Z,94.10
2022-09-20T02:34:57.668Z,94.10
2022-09-20T02:37:48.524Z,93.90
2022-09-20T02:41:07.019Z,94.00
2022-09-20T02:44:17.026Z,93.90
2022-09-20T02:47:09.738Z,94.10
2022-09-20T02:50:07.875Z,94.10
2022-09-20T02:53:29.282Z,94.00
2022-09-20T02:56:05.251Z,94.20
2022-09-20T02:59:07.736Z,94.10
2022-09-20T03:02:12.569Z,94.20
2022-09-20T03:05:01.432Z,94.20
2022-09-20T03:07:49.954Z,94.30
2022-09-20T03:10:51.211Z,94.30
2022-09-20T03:13:49.424Z,94.30
2022-09-20T03:17:06.443Z,94.20
2022-09-20T03:19:43.477Z,94.30
2022-09-20T03:22:38.460Z,94.80
2022-09-20T03:25:30.489Z,94.40
2022-09-20T03:28:23.904Z,94.40
2022-09-20T03:31:19.579Z,94.50
2022-09-20T03:38:04.773Z,94.50
2022-09-20T03:41:10.582Z,94.40
2022-09-20T03:43:59.628Z,94.50
2022-09-20T03:46:36.102Z,94.40
2022-09-20T03:49:36.085Z,94.50
2022-09-20T03:52:18.251Z,94.50
2022-09-20T03:55:17.432Z,94.30
2022-09-20T03:58:40.070Z,94.40
2022-09-20T04:01:47.818Z,94.30
2022-09-20T04:05:09.583Z,94.40
2022-09-20T04:08:08.821Z,94.20
2022-09-20T04:11:19.500Z,94.30
2022-09-20T04:14:00.697Z,94.20
2022-09-20T04:17:02.793Z,94.30
2022-09-20T04:19:46.236Z,94.10
2022-09-20T04:22:21.041Z,94.20
2022-09-20T04:25:04.261Z,94.10
2022-09-20T04:27:51.312Z,94.00
2022-09-20T04:30:28.326Z,94.10
2022-09-20T04:33:04.353Z,94.10
2022-09-20T04:36:08.504Z,94.00
2022-09-20T04:38:41.245Z,94.00
2022-09-20T04:41:51.479Z,94.00
2022-09-20T04:44:33.110Z,94.10
2022-09-20T04:47:40.973Z,94.10
2022-09-20T04:50:20.843Z,94.00
2022-09-20T04:53:23.599Z,94.00
2022-09-20T04:56:51.659Z,94.00
2022-09-20T04:59:56.911Z,94.10
2022-09-20T05:03:09.563Z,94.10
2022-09-20T05:06:19.147Z,94.10
2022-09-20T05:09:06.227Z,94.00
2022-09-20T05:11:58.224Z,94.00
2022-09-20T05:14:50.371Z,94.00
2022-09-20T05:17:43.433Z,94.00
2022-09-20T05:20:38.719Z,94.00
2022-09-20T05:23:28.420Z,94.00
2022-09-20T05:25:59.740Z,94.10
2022-09-20T05:28:46.926Z,94.00
2022-09-20T05:31:43.717Z,94.10
2022-09-20T05:34:46.660Z,94.00
2022-09-20T05:37:51.564Z,94.00
2022-09-20T05:41:01.449Z,94.00
2022-09-20T05:43:45.370Z,94.10
2022-09-20T05:46:35.860Z,94.00
2022-09-20T05:49:36.676Z,94.00
2022-09-20T05:52:37.040Z,94.00
2022-09-20T05:56:02.521Z,94.30
2022-09-20T05:59:27.116Z,94.00
2022-09-20T06:02:10.684Z,93.90
2022-09-20T06:05:18.499Z,94.00
2022-09-20T06:08:06.403Z,94.00
2022-09-20T06:11:17.366Z,93.90
2022-09-20T06:14:24.825Z,93.90
2022-09-20T06:17:20.580Z,93.90
2022-09-20T06:19:54.801Z,93.90
2022-09-20T06:23:01.541Z,93.90
2022-09-20T06:25:58.751Z,93.90
2022-09-20T06:28:37.723Z,94.00
2022-09-20T06:31:12.060Z,94.00
2022-09-20T06:34:08.020Z,94.00
2022-09-20T06:37:10.785Z,94.10
2022-09-20T06:43:20.730Z,93.90
2022-09-20T06:45:52.039Z,94.00
2022-09-20T06:48:23.338Z,94.10
2022-09-20T06:51:15.834Z,94.10
2022-09-20T06:53:47.203Z,94.10
2022-09-20T06:56:26.735Z,94.10
2022-09-20T06:58:58.258Z,94.00
2022-09-20T07:01:30.459Z,94.10
2022-09-20T07:04:23.697Z,94.10
2022-09-20T07:07:02.657Z,94.20
2022-09-20T07:09:36.559Z,94.10
2022-09-20T07:12:08.952Z,94.10
2022-09-20T07:14:40.546Z,94.50
2022-09-20T07:17:16.190Z,94.30
2022-09-20T07:20:08.516Z,94.10
2022-09-20T07:22:40.578Z,94.20
2022-09-20T07:25:12.186Z,94.30
2022-09-20T07:27:43.437Z,94.20
2022-09-20T07:30:16.635Z,94.30
2022-09-20T07:32:48.042Z,94.10
2022-09-20T07:35:19.412Z,94.20
2022-09-20T07:37:50.780Z,94.10
2022-09-20T07:40:22.632Z,94.20
2022-09-20T07:42:56.204Z,94.10
2022-09-20T07:45:27.966Z,94.10
2022-09-20T07:48:01.069Z,94.30
2022-09-20T07:50:32.282Z,94.30
2022-09-20T07:53:06.086Z,94.30
2022-09-20T07:55:37.281Z,94.30
2022-09-20T07:58:08.472Z,94.20
2022-09-20T08:00:39.738Z,94.10
2022-09-20T08:03:10.885Z,94.10
2022-09-20T08:05:42.479Z,94.10
2022-09-20T08:08:17.069Z,94.20
2022-09-20T08:10:50.965Z,94.10
2022-09-20T08:16:38.904Z,94.50
2022-09-20T08:19:10.467Z,94.10
2022-09-20T08:21:42.470Z,94.10
2022-09-20T08:24:13.971Z,94.10
2022-09-20T08:27:05.621Z,94.10
2022-09-20T08:29:37.885Z,94.10
2022-09-20T08:32:09.256Z,94.10
2022-09-20T08:34:42.133Z,94.20
2022-09-20T08:37:33.051Z,94.20
2022-09-20T08:40:04.430Z,94.20
2022-09-20T08:42:43.825Z,94.30
2022-09-20T08:45:23.401Z,94.20
2022-09-20T08:48:08.259Z,94.20
2022-09-20T08:50:40.001Z,94.30
2022-09-20T08:53:35.067Z,94.30
2022-09-20T08:58:54.676Z,94.30
2022-09-20T09:01:34.815Z,94.30
2022-09-20T09:04:26.560Z,94.30
2022-09-20T09:07:23.648Z,94.40
2022-09-20T09:09:57.856Z,94.30
2022-09-20T09:12:33.542Z,94.40
2022-09-20T09:15:25.989Z,94.30
2022-09-20T09:17:57.595Z,94.40
2022-09-20T09:20:29.599Z,94.40
2022-09-20T09:23:06.191Z,94.40
2022-09-20T09:25:41.555Z,94.40
2022-09-20T09:28:12.633Z,94.40
2022-09-20T09:30:47.995Z,94.40
2022-09-20T09:33:32.184Z,94.40
2022-09-20T09:36:30.405Z,94.40
2022-09-20T09:39:25.276Z,94.50
2022-09-20T09:41:57.511Z,94.50
2022-09-20T09:44:31.266Z,94.50
2022-09-20T09:47:02.761Z,94.50
2022-09-20T09:49:38.278Z,94.50
2022-09-20T09:52:29.134Z,94.50
2022-09-20T09:55:03.991Z,94.50
2022-09-20T09:57:42.513Z,94.50
2022-09-20T10:00:21.851Z,94.60
2022-09-20T10:06:27.541Z,94.60
2022-09-20T10:09:15.029Z,94.60
2022-09-20T10:12:13.933Z,94.60
2022-09-20T10:15:18.270Z,94.70
2022-09-20T10:17:52.512Z,94.60
2022-09-20T10:20:32.697Z,94.70
2022-09-20T10:23:45.090Z,94.70
2022-09-20T10:26:47.302Z,94.70
2022-09-20T10:29:37.100Z,94.90
2022-09-20T10:32:39.089Z,94.80
2022-09-20T10:35:27.902Z,94.90
2022-09-20T10:38:23.517Z,94.80
2022-09-20T10:41:29.732Z,94.90
2022-09-20T10:44:12.963Z,95.00
2022-09-20T10:46:55.921Z,95.00
2022-09-20T10:49:56.466Z,95.00
2022-09-20T10:52:45.369Z,95.00
2022-09-20T10:55:41.518Z,95.10
2022-09-20T10:58:33.223Z,95.10
2022-09-20T11:01:10.087Z,95.10
2022-09-20T11:03:57.623Z,95.20
2022-09-20T11:07:04.656Z,95.20
2022-09-20T11:10:18.734Z,95.20
2022-09-20T11:12:58.445Z,95.20
2022-09-20T11:15:53.956Z,95.30
2022-09-20T11:18:34.128Z,95.50
2022-09-20T11:21:34.358Z,95.40
2022-09-20T11:24:20.084Z,95.40
2022-09-20T11:26:57.584Z,95.40
2022-09-20T11:29:28.474Z,95.40
2022-09-20T11:32:46.496Z,95.40
2022-09-20T11:35:31.009Z,95.40
2022-09-20T11:38:07.883Z,95.40
2022-09-20T11:40:51.143Z,95.50
2022-09-20T11:43:23.964Z,95.50
2022-09-20T11:46:00.811Z,95.50
2022-09-20T11:48:40.423Z,95.50
2022-09-20T11:51:42.716Z,95.50
2022-09-20T11:54:43.504Z,95.40
2022-09-20T11:57:18.131Z,95.40
2022-09-20T12:00:18.978Z,95.40
2022-09-20T12:02:55.329Z,95.40
2022-09-20T12:05:42.811Z,95.40
2022-09-20T12:08:26.586Z,95.40
2022-09-20T12:11:03.074Z,95.50
2022-09-20T12:16:47.832Z,95.50
2022-09-20T12:19:24.513Z,95.50
2022-09-20T12:22:27.096Z,95.50
2022-09-20T12:25:38.321Z,95.50
2022-09-20T12:28:17.408Z,95.50
2022-09-20T12:30:48.542Z,95.50
2022-09-20T12:33:23.503Z,95.60
2022-09-20T12:36:00.703Z,95.50
2022-09-20T12:38:35.001Z,95.50
2022-09-20T12:41:06.121Z,95.60
2022-09-20T12:43:58.703Z,95.60
2022-09-20T12:46:40.449Z,95.70
2022-09-20T12:49:43.332Z,95.70
2022-09-20T12:52:56.944Z,95.70
2022-09-20T12:55:31.447Z,95.60
2022-09-20T12:58:12.206Z,95.70
2022-09-20T13:01:00.746Z,95.70
2022-09-20T13:06:54.155Z,95.70
2022-09-20T13:09:28.354Z,95.70
2022-09-20T13:12:04.444Z,95.70
2022-09-20T13:14:36.621Z,95.70
2022-09-20T13:17:32.712Z,95.70
2022-09-20T13:20:24.383Z,95.70
2022-09-20T13:23:00.160Z,95.70
2022-09-20T13:25:32.316Z,95.80
2022-09-20T13:28:30.447Z,95.80
2022-09-20T13:31:25.187Z,95.80
2022-09-20T13:33:57.031Z,95.80
2022-09-20T13:36:32.983Z,95.80
2022-09-20T13:39:05.264Z,95.80
2022-09-20T13:41:37.909Z,95.80
2022-09-20T13:44:18.234Z,95.80
2022-09-20T13:46:49.786Z,95.90
2022-09-20T13:49:26.418Z,95.90
2022-09-20T13:51:58.543Z,95.90
2022-09-20T13:54:50.783Z,95.90
2022-09-20T13:57:27.821Z,95.90
2022-09-20T14:00:00.678Z,96.00
2022-09-20T14:02:43.378Z,96.00
2022-09-20T14:05:22.857Z,96.00
2022-09-20T14:07:55.396Z,96.00
2022-09-20T14:10:37.344Z,96.10
2022-09-20T14:13:11.204Z,96.10
2022-09-20T14:15:46.093Z,96.10
2022-09-20T14:18:22.871Z,96.10
2022-09-20T14:20:56.957Z,96.10
2022-09-20T14:23:30.964Z,96.20
2022-09-20T14:26:24.794Z,96.20
2022-09-20T14:28:56.815Z,96.10
2022-09-20T14:31:35.271Z,96.20
2022-09-20T14:34:07.340Z,96.20
2022-09-20T14:36:39.456Z,96.40
2022-09-20T14:39:18.540Z,96.20
2022-09-20T14:41:52.395Z,96.20
2022-09-20T14:44:33.494Z,96.10
2022-09-20T14:47:38.988Z,96.30
2022-09-20T14:50:32.153Z,96.60
2022-09-20T14:53:03.731Z,96.60
2022-09-20T14:55:39.207Z,96.20
2022-09-20T14:58:16.784Z,96.10
2022-09-20T15:01:04.407Z,95.90
2022-09-20T15:06:29.157Z,95.80
2022-09-20T15:11:47.055Z,95.90
2022-09-20T15:14:39.480Z,96.00
2022-09-20T15:17:23.362Z,96.20
2022-09-20T15:19:55.042Z,95.90
2022-09-20T15:22:26.442Z,95.70
2022-09-20T15:24:57.915Z,95.70
2022-09-20T15:27:29.317Z,95.40
2022-09-20T15:30:00.770Z,95.40
2022-09-20T15:32:34.087Z,95.50
2022-09-20T15:35:05.507Z,96.30
2022-09-20T15:37:56.481Z,95.80
2022-09-20T15:40:48.796Z,95.50
2022-09-20T15:43:41.302Z,95.20
2022-09-20T15:46:46.393Z,95.40
2022-09-20T15:49:17.680Z,95.30
2022-09-20T15:51:49.781Z,95.60
2022-09-20T15:54:21.223Z,95.30
2022-09-20T15:57:12.205Z,95.40
2022-09-20T15:59:44.689Z,95.30
2022-09-20T16:02:16.239Z,95.20
2022-09-20T16:04:47.698Z,95.10
2022-09-20T16:07:21.269Z,95.20
2022-09-20T16:10:11.843Z,95.10
2022-09-20T16:12:43.120Z,94.70
2022-09-20T16:15:15.757Z,94.90
2022-09-20T16:18:04.932Z,95.30
2022-09-20T16:20:56.157Z,94.70
2022-09-20T16:23:27.734Z,94.90
2022-09-20T16:25:58.844Z,95.20
2022-09-20T16:28:30.025Z,94.90
2022-09-20T16:31:03.308Z,94.70
2022-09-20T16:33:35.295Z,94.90
2022-09-20T16:36:06.636Z,94.90
2022-09-20T16:38:40.253Z,94.70
2022-09-20T16:41:11.540Z,95.10
2022-09-20T16:43:42.748Z,95.10
2022-09-20T16:46:14.542Z,95.10
2022-09-20T16:48:46.360Z,95.00
2022-09-20T16:51:17.771Z,94.90
2022-09-20T16:53:48.847Z,95.00
2022-09-20T16:56:27.901Z,94.90
2022-09-20T16:59:00.062Z,95.10
2022-09-20T17:01:33.707Z,95.10
2022-09-20T17:04:06.505Z,94.70
2022-09-20T17:06:39.480Z,94.70
2022-09-20T17:09:10.977Z,94.70
2022-09-20T17:11:51.591Z,94.70
2022-09-20T17:14:23.398Z,94.80
2022-09-20T17:17:14.434Z,94.70
2022-09-20T17:20:05.140Z,94.80
2022-09-20T17:22:36.070Z,94.60
2022-09-20T17:25:07.474Z,94.50
2022-09-20T17:27:40.927Z,94.50
2022-09-20T17:30:13.255Z,94.50
2022-09-20T17:32:49.363Z,94.40
2022-09-20T17:35:20.463Z,94.60
2022-09-20T17:37:51.738Z,94.50
2022-09-20T17:40:22.791Z,94.50
2022-09-20T17:42:53.892Z,94.40
2022-09-20T17:45:24.920Z,94.40
2022-09-20T17:47:59.030Z,94.40
2022-09-20T17:50:30.054Z,94.00
2022-09-20T17:53:00.882Z,95.80
2022-09-20T17:55:51.581Z,96.10
2022-09-20T17:58:22.916Z,96.30
2022-09-20T18:01:16.720Z,94.90
2022-09-20T18:04:09.876Z,94.60
2022-09-20T18:06:48.731Z,94.60
2022-09-20T18:09:22.847Z,94.60
2022-09-20T18:11:56.230Z,94.70
2022-09-20T18:14:31.572Z,94.50
2022-09-20T18:17:03.279Z,94.60
2022-09-20T18:19:35.226Z,94.50
2022-09-20T18:22:06.210Z,94.60
2022-09-20T18:24:37.037Z,94.60
2022-09-20T18:27:08.103Z,94.60
2022-09-20T18:29:38.982Z,94.50
2022-09-20T18:32:10.149Z,94.60
2022-09-20T18:34:41.357Z,94.60
2022-09-20T18:37:14.695Z,94.30
2022-09-20T18:39:45.438Z,94.70
2022-09-20T18:42:16.575Z,94.50
2022-09-20T18:44:47.390Z,94.50
2022-09-20T18:47:38.149Z,94.50
2022-09-20T18:50:11.909Z,94.50
2022-09-20T18:52:43.612Z,94.30
2022-09-20T18:55:15.327Z,94.40
2022-09-20T18:57:46.351Z,94.30
2022-09-20T19:00:17.662Z,94.30
2022-09-20T19:02:56.078Z,94.20
2022-09-20T19:05:40.975Z,94.40
2022-09-20T19:08:42.209Z,94.10
2022-09-20T19:11:23.830Z,94.20
2022-09-20T19:14:02.883Z,94.40
2022-09-20T19:16:42.720Z,94.30
2022-09-20T19:19:48.477Z,94.20
2022-09-20T19:22:58.789Z,94.30
2022-09-20T19:25:45.435Z,94.20
2022-09-20T19:28:39.276Z,94.30
2022-09-20T19:31:24.985Z,94.20
2022-09-20T19:33:57.701Z,94.20
2022-09-20T19:36:58.734Z,94.10
2022-09-20T19:39:58.035Z,94.20
2022-09-20T19:42:40.545Z,94.00
2022-09-20T19:45:45.853Z,94.10
2022-09-20T19:48:32.860Z,94.10
2022-09-20T19:51:06.988Z,94.20
2022-09-20T19:53:38.445Z,94.10
2022-09-20T19:56:24.185Z,94.20
2022-09-20T19:58:57.552Z,94.20
2022-09-20T20:01:30.560Z,94.10
2022-09-20T20:04:01.964Z,94.00
2022-09-20T20:06:56.838Z,93.90
2022-09-20T20:09:42.236Z,94.00
2022-09-20T20:13:00.902Z,93.90
2022-09-20T20:15:54.761Z,94.00
2022-09-20T20:18:31.175Z,93.90
2022-09-20T20:21:02.476Z,93.90
2022-09-20T20:23:58.331Z,93.90
2022-09-20T20:26:29.713Z,93.90
2022-09-20T20:29:01.471Z,94.00
2022-09-20T20:31:32.534Z,93.90
2022-09-20T20:34:03.332Z,93.90
2022-09-20T20:36:34.151Z,93.90
2022-09-20T20:39:05.355Z,93.90
2022-09-20T20:41:36.294Z,93.80
2022-09-20T20:44:07.702Z,93.90
2022-09-20T20:46:39.359Z,93.90
2022-09-20T20:49:10.387Z,93.90
2022-09-20T20:51:41.528Z,93.80
2022-09-20T20:54:33.685Z,93.90
2022-09-20T20:57:04.672Z,93.80
2022-09-20T20:59:35.776Z,93.80
2022-09-20T21:02:08.097Z,93.70
2022-09-20T21:04:41.279Z,93.80
2022-09-20T21:09:56.201Z,93.70
2022-09-20T21:12:46.702Z,93.80
2022-09-20T21:15:19.360Z,93.70
2022-09-20T21:17:54.769Z,93.70
2022-09-20T21:20:25.670Z,93.80
2022-09-20T21:22:58.590Z,93.60
2022-09-20T21:25:30.054Z,93.80
2022-09-20T21:28:03.870Z,93.70
2022-09-20T21:30:34.834Z,93.60
2022-09-20T21:33:05.946Z,93.80
2022-09-20T21:35:37.831Z,93.80
2022-09-20T21:38:09.401Z,93.60
2022-09-20T21:40:40.990Z,93.80
2022-09-20T21:43:12.079Z,94.10
2022-09-20T21:45:47.386Z,93.70
2022-09-20T21:48:18.184Z,93.60
2022-09-20T21:50:49.324Z,93.80
2022-09-20T21:53:43.424Z,93.80
2022-09-20T21:56:15.208Z,93.80
2022-09-20T21:58:47.309Z,93.60
2022-09-20T22:01:20.713Z,93.60
2022-09-20T22:03:56.209Z,93.70
2022-09-20T22:06:35.896Z,93.70
2022-09-20T22:09:12.328Z,93.50
2022-09-20T22:11:48.535Z,93.60
2022-09-20T22:14:20.976Z,93.50
2022-09-20T22:16:52.790Z,93.60
2022-09-20T22:19:25.757Z,93.50
2022-09-20T22:21:56.764Z,93.50
2022-09-20T22:24:27.728Z,93.70
2022-09-20T22:26:58.792Z,93.60
2022-09-20T22:29:29.669Z,93.60
2022-09-20T22:32:00.447Z,93.60
2022-09-20T22:34:31.509Z,93.60
2022-09-20T22:37:02.632Z,93.40
2022-09-20T22:39:33.558Z,93.70
2022-09-20T22:42:04.469Z,93.50
2022-09-20T22:44:35.570Z,93.60
2022-09-20T22:47:06.644Z,93.60
2022-09-20T22:49:37.649Z,93.50
2022-09-20T22:52:09.094Z,93.50
2022-09-20T22:54:40.222Z,93.50
2022-09-20T22:57:11.289Z,93.50
2022-09-20T22:59:42.249Z,93.50
2022-09-20T23:02:13.091Z,93.50
2022-09-20T23:04:44.324Z,93.40
2022-09-20T23:07:15.523Z,93.40
2022-09-20T23:09:47.181Z,93.40
2022-09-20T23:12:18.326Z,93.60
2022-09-20T23:14:49.275Z,93.60
2022-09-20T23:17:20.413Z,93.50
2022-09-20T23:19:51.274Z,93.40
2022-09-20T23:22:22.103Z,93.30
2022-09-20T23:24:53.042Z,93.30
2022-09-20T23:27:23.908Z,93.30
2022-09-20T23:29:54.736Z,93.40
2022-09-20T23:32:25.557Z,93.40
2022-09-20T23:34:56.598Z,93.20
2022-09-20T23:37:38.504Z,93.20
2022-09-20T23:40:29.744Z,93.10
2022-09-20T23:43:20.627Z,93.10
2022-09-20T23:45:52.914Z,93.20
2022-09-20T23:48:23.815Z,93.20
2022-09-20T23:50:56.157Z,93.10
2022-09-20T23:53:47.104Z,93.10
2022-09-20T23:56:18.946Z,92.90
2022-09-20T23:58:51.644Z,93.20
